TimeEST,TemperatureF,Dew PointF,Humidity,Sea Level PressureIn,VisibilityMPH,Wind Direction,Wind SpeedMPH,Gust SpeedMPH,PrecipitationIn,Events,Conditions,WindDirDegrees,DateUTC
12:54 AM,30.9,18.0,59,30.25,10.0,WSW,5.8,-,N/A,,Mostly Cloudy,250,2012-12-31 05:54:00
1:54 AM,32.0,19.0,59,30.25,10.0,West,3.5,-,N/A,,Overcast,260,2012-12-31 06:54:00
2:54 AM,32.0,19.9,61,30.27,10.0,WSW,5.8,-,N/A,,Overcast,250,2012-12-31 07:54:00
3:54 AM,30.9,19.0,61,30.25,10.0,West,9.2,-,N/A,,Partly Cloudy,260,2012-12-31 08:54:00
4:54 AM,30.0,19.0,64,30.24,10.0,West,5.8,-,N/A,,Clear,260,2012-12-31 09:54:00
5:54 AM,30.0,18.0,61,30.24,10.0,WSW,8.1,-,N/A,,Clear,250,2012-12-31 10:54:00
6:54 AM,30.0,19.0,64,30.23,10.0,West,6.9,-,N/A,,Clear,260,2012-12-31 11:54:00
7:54 AM,30.0,19.0,64,30.23,10.0,WSW,6.9,16.1,N/A,,Clear,250,2012-12-31 12:54:00
8:54 AM,30.9,19.0,61,30.24,10.0,West,9.2,-,N/A,,Clear,260,2012-12-31 13:54:00
9:54 AM,30.9,19.0,61,30.24,10.0,WSW,10.4,-,N/A,,Clear,250,2012-12-31 14:54:00
10:54 AM,33.1,19.9,59,30.22,10.0,WSW,6.9,-,N/A,,Clear,250,2012-12-31 15:54:00
11:54 AM,35.1,19.9,54,30.18,10.0,West,13.8,-,N/A,,Clear,260,2012-12-31 16:54:00
12:54 PM,36.0,21.0,55,30.14,10.0,WSW,11.5,-,N/A,,Clear,250,2012-12-31 17:54:00
1:54 PM,37.0,19.9,50,30.10,10.0,WSW,10.4,-,N/A,,Partly Cloudy,250,2012-12-31 18:54:00
2:54 PM,37.0,19.9,50,30.08,10.0,SW,8.1,-,N/A,,Mostly Cloudy,230,2012-12-31 19:54:00
3:54 PM,37.0,19.9,50,30.06,10.0,SW,5.8,-,N/A,,Overcast,230,2012-12-31 20:54:00
4:54 PM,37.9,21.0,51,30.05,10.0,SW,10.4,-,N/A,,Mostly Cloudy,230,2012-12-31 21:54:00
5:54 PM,37.9,23.0,55,30.04,10.0,WSW,5.8,-,N/A,,Overcast,240,2012-12-31 22:54:00
7:54 PM,39.0,23.0,53,29.99,10.0,SW,8.1,-,N/A,,Overcast,230,2013-01-01 00:54:00
8:54 PM,39.9,23.0,51,29.97,10.0,WSW,10.4,16.1,N/A,,Overcast,240,2013-01-01 01:54:00
10:54 PM,41.0,24.1,51,29.96,10.0,SW,10.4,-,N/A,,Clear,230,2013-01-01 03:54:00